sensor_id;sensor_type;location;lat;lon;timestamp;temperature;humidity
74376;HTU21D;62812;55.188;61.302;2023-05-10T00:01:31;5.98;50.26
74376;HTU21D;62812;55.188;61.302;2023-05-10T00:03:57;5.99;51.72
74376;HTU21D;62812;55.188;61.302;2023-05-10T00:06:26;5.91;51.68
74376;HTU21D;62812;55.188;61.302;2023-05-10T00:08:53;5.85;51.88
74376;HTU21D;62812;55.188;61.302;2023-05-10T00:11:19;5.78;52.24
74376;HTU21D;62812;55.188;61.302;2023-05-10T00:13:46;5.71;52.89
74376;HTU21D;62812;55.188;61.302;2023-05-10T00:16:13;5.64;53.56
74376;HTU21D;62812;55.188;61.302;2023-05-10T00:18:41;5.64;53.76
74376;HTU21D;62812;55.188;61.302;2023-05-10T00:21:08;5.65;53.30
74376;HTU21D;62812;55.188;61.302;2023-05-10T00:23:35;5.68;53.91
74376;HTU21D;62812;55.188;61.302;2023-05-10T00:26:01;5.74;54.19
74376;HTU21D;62812;55.188;61.302;2023-05-10T00:28:28;5.82;53.21
74376;HTU21D;62812;55.188;61.302;2023-05-10T00:30:55;5.96;51.62
74376;HTU21D;62812;55.188;61.302;2023-05-10T00:33:22;6.05;52.46
74376;HTU21D;62812;55.188;61.302;2023-05-10T00:35:50;6.08;51.99
74376;HTU21D;62812;55.188;61.302;2023-05-10T00:38:18;6.16;51.56
74376;HTU21D;62812;55.188;61.302;2023-05-10T00:40:44;6.24;51.56
74376;HTU21D;62812;55.188;61.302;2023-05-10T00:43:11;6.33;51.79
74376;HTU21D;62812;55.188;61.302;2023-05-10T00:45:40;6.35;52.11
74376;HTU21D;62812;55.188;61.302;2023-05-10T00:48:06;6.42;51.51
74376;HTU21D;62812;55.188;61.302;2023-05-10T00:50:33;6.49;51.19
74376;HTU21D;62812;55.188;61.302;2023-05-10T00:53:02;6.54;50.87
74376;HTU21D;62812;55.188;61.302;2023-05-10T00:55:30;6.60;50.90
74376;HTU21D;62812;55.188;61.302;2023-05-10T00:57:57;6.70;50.54
74376;HTU21D;62812;55.188;61.302;2023-05-10T01:00:24;6.82;50.28
74376;HTU21D;62812;55.188;61.302;2023-05-10T01:02:50;6.86;50.30
74376;HTU21D;62812;55.188;61.302;2023-05-10T01:05:17;6.98;50.08
74376;HTU21D;62812;55.188;61.302;2023-05-10T01:07:44;7.08;50.27
74376;HTU21D;62812;55.188;61.302;2023-05-10T01:10:12;7.18;49.88
74376;HTU21D;62812;55.188;61.302;2023-05-10T01:12:41;7.28;49.66
74376;HTU21D;62812;55.188;61.302;2023-05-10T01:15:09;7.43;49.50
74376;HTU21D;62812;55.188;61.302;2023-05-10T01:17:38;7.76;49.00
74376;HTU21D;62812;55.188;61.302;2023-05-10T01:20:09;8.02;48.00
74376;HTU21D;62812;55.188;61.302;2023-05-10T01:25:57;8.72;46.35
74376;HTU21D;62812;55.188;61.302;2023-05-10T01:32:05;9.32;44.64
74376;HTU21D;62812;55.188;61.302;2023-05-10T01:34:42;9.39;44.36
74376;HTU21D;62812;55.188;61.302;2023-05-10T01:37:13;9.41;44.30
74376;HTU21D;62812;55.188;61.302;2023-05-10T01:39:45;9.44;43.62
74376;HTU21D;62812;55.188;61.302;2023-05-10T01:42:17;9.49;39.27
74376;HTU21D;62812;55.188;61.302;2023-05-10T01:44:50;9.59;40.55
74376;HTU21D;62812;55.188;61.302;2023-05-10T01:47:23;9.57;39.97
74376;HTU21D;62812;55.188;61.302;2023-05-10T01:49:55;9.55;36.95
74376;HTU21D;62812;55.188;61.302;2023-05-10T01:52:30;9.60;37.99
74376;HTU21D;62812;55.188;61.302;2023-05-10T01:55:04;9.66;37.83
74376;HTU21D;62812;55.188;61.302;2023-05-10T01:57:33;9.76;37.88
74376;HTU21D;62812;55.188;61.302;2023-05-10T02:00:01;9.82;38.92
74376;HTU21D;62812;55.188;61.302;2023-05-10T02:02:35;9.95;38.24
74376;HTU21D;62812;55.188;61.302;2023-05-10T02:05:05;10.18;36.72
74376;HTU21D;62812;55.188;61.302;2023-05-10T02:07:33;10.39;35.79
74376;HTU21D;62812;55.188;61.302;2023-05-10T02:10:02;10.63;35.55
74376;HTU21D;62812;55.188;61.302;2023-05-10T02:12:30;10.78;34.39
74376;HTU21D;62812;55.188;61.302;2023-05-10T02:14:59;10.89;34.26
74376;HTU21D;62812;55.188;61.302;2023-05-10T02:17:29;10.96;34.36
74376;HTU21D;62812;55.188;61.302;2023-05-10T02:19:59;11.08;34.70
74376;HTU21D;62812;55.188;61.302;2023-05-10T02:22:26;11.04;33.77
74376;HTU21D;62812;55.188;61.302;2023-05-10T02:24:55;11.08;34.82
74376;HTU21D;62812;55.188;61.302;2023-05-10T02:27:26;11.14;35.15
74376;HTU21D;62812;55.188;61.302;2023-05-10T02:29:54;11.15;36.34
74376;HTU21D;62812;55.188;61.302;2023-05-10T02:32:21;11.26;34.09
74376;HTU21D;62812;55.188;61.302;2023-05-10T02:34:49;11.37;33.86
74376;HTU21D;62812;55.188;61.302;2023-05-10T02:37:20;11.55;33.02
74376;HTU21D;62812;55.188;61.302;2023-05-10T02:39:49;11.61;32.43
74376;HTU21D;62812;55.188;61.302;2023-05-10T02:42:18;11.72;31.57
74376;HTU21D;62812;55.188;61.302;2023-05-10T02:44:48;11.84;31.61
74376;HTU21D;62812;55.188;61.302;2023-05-10T02:47:16;12.02;31.16
74376;HTU21D;62812;55.188;61.302;2023-05-10T02:49:45;12.13;31.60
74376;HTU21D;62812;55.188;61.302;2023-05-10T02:52:16;12.33;30.97
74376;HTU21D;62812;55.188;61.302;2023-05-10T02:54:50;12.20;30.65
74376;HTU21D;62812;55.188;61.302;2023-05-10T02:57:24;12.30;30.09
74376;HTU21D;62812;55.188;61.302;2023-05-10T02:59:51;12.50;30.00
74376;HTU21D;62812;55.188;61.302;2023-05-10T03:02:18;12.60;28.73
74376;HTU21D;62812;55.188;61.302;2023-05-10T03:04:45;12.64;28.63
74376;HTU21D;62812;55.188;61.302;2023-05-10T03:07:11;12.82;28.11
74376;HTU21D;62812;55.188;61.302;2023-05-10T03:09:39;12.95;27.86
74376;HTU21D;62812;55.188;61.302;2023-05-10T03:12:14;12.76;27.76
74376;HTU21D;62812;55.188;61.302;2023-05-10T03:14:49;12.82;26.67
74376;HTU21D;62812;55.188;61.302;2023-05-10T03:17:23;13.14;26.30
74376;HTU21D;62812;55.188;61.302;2023-05-10T03:19:54;13.25;25.33
74376;HTU21D;62812;55.188;61.302;2023-05-10T03:22:25;13.43;26.49
74376;HTU21D;62812;55.188;61.302;2023-05-10T03:24:55;13.38;25.72
74376;HTU21D;62812;55.188;61.302;2023-05-10T03:27:26;13.26;25.81
74376;HTU21D;62812;55.188;61.302;2023-05-10T03:29:55;13.31;25.40
74376;HTU21D;62812;55.188;61.302;2023-05-10T03:32:22;13.54;24.21
74376;HTU21D;62812;55.188;61.302;2023-05-10T03:34:49;13.81;23.96
74376;HTU21D;62812;55.188;61.302;2023-05-10T03:37:17;14.03;23.32
74376;HTU21D;62812;55.188;61.302;2023-05-10T03:39:45;14.22;23.82
74376;HTU21D;62812;55.188;61.302;2023-05-10T03:42:13;14.26;23.17
74376;HTU21D;62812;55.188;61.302;2023-05-10T03:44:42;14.44;22.23
74376;HTU21D;62812;55.188;61.302;2023-05-10T03:47:09;14.53;22.69
74376;HTU21D;62812;55.188;61.302;2023-05-10T03:49:37;14.55;22.40
74376;HTU21D;62812;55.188;61.302;2023-05-10T03:52:06;14.56;22.37
74376;HTU21D;62812;55.188;61.302;2023-05-10T03:54:33;14.73;22.95
74376;HTU21D;62812;55.188;61.302;2023-05-10T03:57:03;14.89;21.37
74376;HTU21D;62812;55.188;61.302;2023-05-10T03:59:30;14.96;21.37
74376;HTU21D;62812;55.188;61.302;2023-05-10T04:02:02;15.08;20.79
74376;HTU21D;62812;55.188;61.302;2023-05-10T04:04:31;15.08;20.80
74376;HTU21D;62812;55.188;61.302;2023-05-10T04:07:00;15.19;20.54
74376;HTU21D;62812;55.188;61.302;2023-05-10T04:09:28;15.33;20.25
74376;HTU21D;62812;55.188;61.302;2023-05-10T04:11:56;15.53;21.50
74376;HTU21D;62812;55.188;61.302;2023-05-10T04:14:25;15.71;18.83
74376;HTU21D;62812;55.188;61.302;2023-05-10T04:16:53;15.78;18.96
74376;HTU21D;62812;55.188;61.302;2023-05-10T04:19:21;15.81;20.31
74376;HTU21D;62812;55.188;61.302;2023-05-10T04:21:51;15.96;19.20
74376;HTU21D;62812;55.188;61.302;2023-05-10T04:24:28;16.01;18.52
74376;HTU21D;62812;55.188;61.302;2023-05-10T04:26:58;16.11;17.41
74376;HTU21D;62812;55.188;61.302;2023-05-10T04:29:27;16.12;18.51
74376;HTU21D;62812;55.188;61.302;2023-05-10T04:31:56;16.21;17.23
74376;HTU21D;62812;55.188;61.302;2023-05-10T04:34:25;16.11;17.87
74376;HTU21D;62812;55.188;61.302;2023-05-10T04:36:57;16.08;17.62
74376;HTU21D;62812;55.188;61.302;2023-05-10T04:39:25;16.11;18.50
74376;HTU21D;62812;55.188;61.302;2023-05-10T04:41:59;16.11;17.42
74376;HTU21D;62812;55.188;61.302;2023-05-10T04:44:26;16.20;17.64
74376;HTU21D;62812;55.188;61.302;2023-05-10T04:46:54;16.26;18.59
74376;HTU21D;62812;55.188;61.302;2023-05-10T04:49:30;16.26;17.54
74376;HTU21D;62812;55.188;61.302;2023-05-10T04:51:57;16.32;18.04
74376;HTU21D;62812;55.188;61.302;2023-05-10T04:54:25;16.31;17.80
74376;HTU21D;62812;55.188;61.302;2023-05-10T04:56:56;16.33;18.15
74376;HTU21D;62812;55.188;61.302;2023-05-10T04:59:25;16.24;18.25
74376;HTU21D;62812;55.188;61.302;2023-05-10T05:01:54;16.25;18.37
74376;HTU21D;62812;55.188;61.302;2023-05-10T05:04:21;16.51;19.75
74376;HTU21D;62812;55.188;61.302;2023-05-10T05:06:58;16.80;18.85
74376;HTU21D;62812;55.188;61.302;2023-05-10T05:09:25;16.75;17.52
74376;HTU21D;62812;55.188;61.302;2023-05-10T05:11:52;16.74;18.26
74376;HTU21D;62812;55.188;61.302;2023-05-10T05:14:19;16.76;18.78
74376;HTU21D;62812;55.188;61.302;2023-05-10T05:16:48;16.70;18.43
74376;HTU21D;62812;55.188;61.302;2023-05-10T05:19:20;16.60;18.41
74376;HTU21D;62812;55.188;61.302;2023-05-10T05:22:00;16.58;16.63
74376;HTU21D;62812;55.188;61.302;2023-05-10T05:24:37;16.60;17.06
74376;HTU21D;62812;55.188;61.302;2023-05-10T05:27:06;16.77;17.54
74376;HTU21D;62812;55.188;61.302;2023-05-10T05:29:57;16.78;15.61
74376;HTU21D;62812;55.188;61.302;2023-05-10T05:32:37;16.71;15.37
74376;HTU21D;62812;55.188;61.302;2023-05-10T05:35:09;16.59;15.46
74376;HTU21D;62812;55.188;61.302;2023-05-10T05:37:40;16.58;15.15
74376;HTU21D;62812;55.188;61.302;2023-05-10T05:40:11;16.45;15.58
74376;HTU21D;62812;55.188;61.302;2023-05-10T05:42:39;16.46;16.88
74376;HTU21D;62812;55.188;61.302;2023-05-10T05:45:08;16.43;15.97
74376;HTU21D;62812;55.188;61.302;2023-05-10T05:47:40;16.47;16.38
74376;HTU21D;62812;55.188;61.302;2023-05-10T05:50:08;16.42;16.26
74376;HTU21D;62812;55.188;61.302;2023-05-10T05:52:39;16.39;16.47
74376;HTU21D;62812;55.188;61.302;2023-05-10T05:55:16;16.32;16.42
74376;HTU21D;62812;55.188;61.302;2023-05-10T05:57:43;16.31;16.29
74376;HTU21D;62812;55.188;61.302;2023-05-10T06:00:12;16.34;17.71
74376;HTU21D;62812;55.188;61.302;2023-05-10T06:02:44;16.28;16.90
74376;HTU21D;62812;55.188;61.302;2023-05-10T06:05:11;16.18;17.01
74376;HTU21D;62812;55.188;61.302;2023-05-10T06:07:49;16.26;16.93
74376;HTU21D;62812;55.188;61.302;2023-05-10T06:10:22;16.27;17.84
74376;HTU21D;62812;55.188;61.302;2023-05-10T06:12:50;16.11;18.13
74376;HTU21D;62812;55.188;61.302;2023-05-10T06:15:22;15.95;18.10
74376;HTU21D;62812;55.188;61.302;2023-05-10T06:17:50;16.02;18.55
74376;HTU21D;62812;55.188;61.302;2023-05-10T06:20:22;16.29;19.73
74376;HTU21D;62812;55.188;61.302;2023-05-10T06:22:51;16.28;17.67
74376;HTU21D;62812;55.188;61.302;2023-05-10T06:25:35;16.25;17.56
74376;HTU21D;62812;55.188;61.302;2023-05-10T06:28:02;16.27;17.46
74376;HTU21D;62812;55.188;61.302;2023-05-10T06:30:29;16.26;17.06
74376;HTU21D;62812;55.188;61.302;2023-05-10T06:32:56;16.26;17.38
74376;HTU21D;62812;55.188;61.302;2023-05-10T06:35:23;16.30;16.71
74376;HTU21D;62812;55.188;61.302;2023-05-10T06:37:53;16.36;16.83
74376;HTU21D;62812;55.188;61.302;2023-05-10T06:40:21;16.41;16.87
74376;HTU21D;62812;55.188;61.302;2023-05-10T06:42:50;16.39;16.32
74376;HTU21D;62812;55.188;61.302;2023-05-10T06:45:18;16.62;16.66
74376;HTU21D;62812;55.188;61.302;2023-05-10T06:47:46;16.77;19.09
74376;HTU21D;62812;55.188;61.302;2023-05-10T06:50:14;16.95;17.99
74376;HTU21D;62812;55.188;61.302;2023-05-10T06:52:44;17.36;16.93
74376;HTU21D;62812;55.188;61.302;2023-05-10T06:55:19;17.31;14.41
74376;HTU21D;62812;55.188;61.302;2023-05-10T06:57:50;17.33;17.71
74376;HTU21D;62812;55.188;61.302;2023-05-10T07:00:19;17.53;15.48
74376;HTU21D;62812;55.188;61.302;2023-05-10T07:02:47;17.39;15.47
74376;HTU21D;62812;55.188;61.302;2023-05-10T07:05:14;17.30;15.69
74376;HTU21D;62812;55.188;61.302;2023-05-10T07:07:41;17.17;16.13
74376;HTU21D;62812;55.188;61.302;2023-05-10T07:10:10;17.32;15.71
74376;HTU21D;62812;55.188;61.302;2023-05-10T07:12:44;17.54;16.77
74376;HTU21D;62812;55.188;61.302;2023-05-10T07:15:15;17.56;16.56
74376;HTU21D;62812;55.188;61.302;2023-05-10T07:17:51;17.94;17.61
74376;HTU21D;62812;55.188;61.302;2023-05-10T07:20:22;17.79;14.39
74376;HTU21D;62812;55.188;61.302;2023-05-10T07:22:57;17.62;15.26
74376;HTU21D;62812;55.188;61.302;2023-05-10T07:25:28;17.58;16.43
74376;HTU21D;62812;55.188;61.302;2023-05-10T07:28:08;17.59;16.41
74376;HTU21D;62812;55.188;61.302;2023-05-10T07:30:37;17.70;15.10
74376;HTU21D;62812;55.188;61.302;2023-05-10T07:33:07;17.62;15.75
74376;HTU21D;62812;55.188;61.302;2023-05-10T07:35:50;17.67;15.32
74376;HTU21D;62812;55.188;61.302;2023-05-10T07:38:21;17.30;14.79
74376;HTU21D;62812;55.188;61.302;2023-05-10T07:40:51;17.26;16.00
74376;HTU21D;62812;55.188;61.302;2023-05-10T07:43:28;17.36;14.94
74376;HTU21D;62812;55.188;61.302;2023-05-10T07:45:59;17.25;13.73
74376;HTU21D;62812;55.188;61.302;2023-05-10T07:48:30;17.22;12.49
74376;HTU21D;62812;55.188;61.302;2023-05-10T07:51:11;17.13;18.85
74376;HTU21D;62812;55.188;61.302;2023-05-10T07:53:40;17.55;16.05
74376;HTU21D;62812;55.188;61.302;2023-05-10T07:56:21;17.26;14.87
74376;HTU21D;62812;55.188;61.302;2023-05-10T07:59:01;17.16;15.27
74376;HTU21D;62812;55.188;61.302;2023-05-10T08:01:31;17.20;16.77
74376;HTU21D;62812;55.188;61.302;2023-05-10T08:04:07;17.43;15.71
74376;HTU21D;62812;55.188;61.302;2023-05-10T08:06:35;17.55;16.78
74376;HTU21D;62812;55.188;61.302;2023-05-10T08:09:02;17.61;15.10
74376;HTU21D;62812;55.188;61.302;2023-05-10T08:11:31;17.33;14.92
74376;HTU21D;62812;55.188;61.302;2023-05-10T08:14:04;17.34;16.10
74376;HTU21D;62812;55.188;61.302;2023-05-10T08:16:32;17.48;16.06
74376;HTU21D;62812;55.188;61.302;2023-05-10T08:19:00;17.39;15.77
74376;HTU21D;62812;55.188;61.302;2023-05-10T08:21:29;17.33;14.46
74376;HTU21D;62812;55.188;61.302;2023-05-10T08:23:58;17.22;15.31
74376;HTU21D;62812;55.188;61.302;2023-05-10T08:26:25;17.07;14.97
74376;HTU21D;62812;55.188;61.302;2023-05-10T08:28:53;16.98;15.10
74376;HTU21D;62812;55.188;61.302;2023-05-10T08:31:22;16.88;15.19
74376;HTU21D;62812;55.188;61.302;2023-05-10T08:33:49;16.82;14.90
74376;HTU21D;62812;55.188;61.302;2023-05-10T08:36:21;16.84;14.90
74376;HTU21D;62812;55.188;61.302;2023-05-10T08:38:51;16.60;15.56
74376;HTU21D;62812;55.188;61.302;2023-05-10T08:41:19;16.74;19.09
74376;HTU21D;62812;55.188;61.302;2023-05-10T08:43:50;16.84;16.98
74376;HTU21D;62812;55.188;61.302;2023-05-10T08:46:19;16.95;17.57
74376;HTU21D;62812;55.188;61.302;2023-05-10T08:48:54;17.01;15.14
74376;HTU21D;62812;55.188;61.302;2023-05-10T08:51:36;16.82;15.86
74376;HTU21D;62812;55.188;61.302;2023-05-10T08:54:05;16.77;16.13
74376;HTU21D;62812;55.188;61.302;2023-05-10T08:56:37;16.89;16.93
74376;HTU21D;62812;55.188;61.302;2023-05-10T08:59:04;16.85;15.71
74376;HTU21D;62812;55.188;61.302;2023-05-10T09:01:31;16.86;15.75
74376;HTU21D;62812;55.188;61.302;2023-05-10T09:04:01;16.90;15.58
74376;HTU21D;62812;55.188;61.302;2023-05-10T09:06:29;16.96;15.99
74376;HTU21D;62812;55.188;61.302;2023-05-10T09:08:56;16.92;15.49
74376;HTU21D;62812;55.188;61.302;2023-05-10T09:11:25;16.81;15.56
74376;HTU21D;62812;55.188;61.302;2023-05-10T09:13:52;16.82;16.51
74376;HTU21D;62812;55.188;61.302;2023-05-10T09:16:19;17.13;15.10
74376;HTU21D;62812;55.188;61.302;2023-05-10T09:18:47;17.14;17.17
74376;HTU21D;62812;55.188;61.302;2023-05-10T09:21:19;16.99;15.79
74376;HTU21D;62812;55.188;61.302;2023-05-10T09:23:47;17.19;18.91
74376;HTU21D;62812;55.188;61.302;2023-05-10T09:26:31;17.46;15.32
74376;HTU21D;62812;55.188;61.302;2023-05-10T09:29:00;17.41;14.59
74376;HTU21D;62812;55.188;61.302;2023-05-10T09:31:44;17.36;15.39
74376;HTU21D;62812;55.188;61.302;2023-05-10T09:34:16;17.49;15.40
74376;HTU21D;62812;55.188;61.302;2023-05-10T09:36:56;17.54;15.51
74376;HTU21D;62812;55.188;61.302;2023-05-10T09:39:31;17.36;13.91
74376;HTU21D;62812;55.188;61.302;2023-05-10T09:42:01;17.21;15.06
74376;HTU21D;62812;55.188;61.302;2023-05-10T09:44:57;17.54;15.28
74376;HTU21D;62812;55.188;61.302;2023-05-10T09:47:33;17.75;14.74
74376;HTU21D;62812;55.188;61.302;2023-05-10T09:50:09;17.92;17.13
74376;HTU21D;62812;55.188;61.302;2023-05-10T09:52:49;18.08;15.80
74376;HTU21D;62812;55.188;61.302;2023-05-10T09:55:19;18.26;14.94
74376;HTU21D;62812;55.188;61.302;2023-05-10T09:57:59;18.32;15.80
74376;HTU21D;62812;55.188;61.302;2023-05-10T10:03:22;18.19;14.43
74376;HTU21D;62812;55.188;61.302;2023-05-10T10:06:02;17.98;14.90
74376;HTU21D;62812;55.188;61.302;2023-05-10T10:08:33;17.77;14.83
74376;HTU21D;62812;55.188;61.302;2023-05-10T10:11:00;17.59;14.90
74376;HTU21D;62812;55.188;61.302;2023-05-10T10:13:30;17.73;15.86
74376;HTU21D;62812;55.188;61.302;2023-05-10T10:16:00;17.80;16.02
74376;HTU21D;62812;55.188;61.302;2023-05-10T10:18:31;17.89;14.71
74376;HTU21D;62812;55.188;61.302;2023-05-10T10:21:10;17.75;14.68
74376;HTU21D;62812;55.188;61.302;2023-05-10T10:23:48;17.61;15.23
74376;HTU21D;62812;55.188;61.302;2023-05-10T10:26:20;17.61;14.37
74376;HTU21D;62812;55.188;61.302;2023-05-10T10:29:07;17.63;16.38
74376;HTU21D;62812;55.188;61.302;2023-05-10T10:31:41;17.95;15.50
74376;HTU21D;62812;55.188;61.302;2023-05-10T10:34:24;17.56;14.35
74376;HTU21D;62812;55.188;61.302;2023-05-10T10:36:52;17.47;14.47
74376;HTU21D;62812;55.188;61.302;2023-05-10T10:39:23;17.43;14.62
74376;HTU21D;62812;55.188;61.302;2023-05-10T10:41:53;17.26;14.48
74376;HTU21D;62812;55.188;61.302;2023-05-10T10:44:38;17.45;15.93
74376;HTU21D;62812;55.188;61.302;2023-05-10T10:47:09;17.60;17.77
74376;HTU21D;62812;55.188;61.302;2023-05-10T10:49:49;17.80;17.32
74376;HTU21D;62812;55.188;61.302;2023-05-10T10:52:22;17.73;14.90
74376;HTU21D;62812;55.188;61.302;2023-05-10T10:55:00;17.62;15.67
74376;HTU21D;62812;55.188;61.302;2023-05-10T10:57:28;17.59;17.62
74376;HTU21D;62812;55.188;61.302;2023-05-10T11:00:27;17.39;14.28
74376;HTU21D;62812;55.188;61.302;2023-05-10T11:02:56;17.43;14.48
74376;HTU21D;62812;55.188;61.302;2023-05-10T11:05:25;17.18;15.22
74376;HTU21D;62812;55.188;61.302;2023-05-10T11:07:53;16.94;15.42
74376;HTU21D;62812;55.188;61.302;2023-05-10T11:10:23;16.81;15.80
74376;HTU21D;62812;55.188;61.302;2023-05-10T11:13:00;16.91;15.16
74376;HTU21D;62812;55.188;61.302;2023-05-10T11:15:31;16.84;15.57
74376;HTU21D;62812;55.188;61.302;2023-05-10T11:17:59;16.78;15.71
74376;HTU21D;62812;55.188;61.302;2023-05-10T11:20:40;16.74;16.46
74376;HTU21D;62812;55.188;61.302;2023-05-10T11:23:14;16.72;15.93
74376;HTU21D;62812;55.188;61.302;2023-05-10T11:25:47;16.65;15.77
74376;HTU21D;62812;55.188;61.302;2023-05-10T11:28:27;16.66;15.68
74376;HTU21D;62812;55.188;61.302;2023-05-10T11:30:56;16.77;17.32
74376;HTU21D;62812;55.188;61.302;2023-05-10T11:33:25;16.82;15.81
74376;HTU21D;62812;55.188;61.302;2023-05-10T11:35:53;16.93;17.15
74376;HTU21D;62812;55.188;61.302;2023-05-10T11:38:22;17.01;16.29
74376;HTU21D;62812;55.188;61.302;2023-05-10T11:40:54;16.88;16.59
74376;HTU21D;62812;55.188;61.302;2023-05-10T11:43:26;16.88;16.99
74376;HTU21D;62812;55.188;61.302;2023-05-10T11:45:57;16.78;15.33
74376;HTU21D;62812;55.188;61.302;2023-05-10T11:48:24;16.70;15.77
74376;HTU21D;62812;55.188;61.302;2023-05-10T11:50:51;16.69;15.71
74376;HTU21D;62812;55.188;61.302;2023-05-10T11:53:20;16.65;15.50
74376;HTU21D;62812;55.188;61.302;2023-05-10T11:55:54;16.62;15.77
74376;HTU21D;62812;55.188;61.302;2023-05-10T11:58:20;16.70;14.74
74376;HTU21D;62812;55.188;61.302;2023-05-10T12:00:51;16.70;14.96
74376;HTU21D;62812;55.188;61.302;2023-05-10T12:03:26;16.61;15.23
74376;HTU21D;62812;55.188;61.302;2023-05-10T12:06:13;16.73;17.12
74376;HTU21D;62812;55.188;61.302;2023-05-10T12:09:11;16.74;15.10
74376;HTU21D;62812;55.188;61.302;2023-05-10T12:11:42;16.76;15.84
74376;HTU21D;62812;55.188;61.302;2023-05-10T12:14:09;16.75;15.01
74376;HTU21D;62812;55.188;61.302;2023-05-10T12:16:45;16.76;15.83
74376;HTU21D;62812;55.188;61.302;2023-05-10T12:19:40;16.62;14.97
74376;HTU21D;62812;55.188;61.302;2023-05-10T12:22:10;16.45;15.39
74376;HTU21D;62812;55.188;61.302;2023-05-10T12:24:40;16.29;15.22
74376;HTU21D;62812;55.188;61.302;2023-05-10T12:30:33;16.21;15.48
74376;HTU21D;62812;55.188;61.302;2023-05-10T12:33:08;16.11;15.79
74376;HTU21D;62812;55.188;61.302;2023-05-10T12:35:44;16.00;15.96
74376;HTU21D;62812;55.188;61.302;2023-05-10T12:38:29;15.92;15.57
74376;HTU21D;62812;55.188;61.302;2023-05-10T12:40:57;15.80;16.28
74376;HTU21D;62812;55.188;61.302;2023-05-10T12:43:25;15.69;16.61
74376;HTU21D;62812;55.188;61.302;2023-05-10T12:45:55;15.57;17.36
74376;HTU21D;62812;55.188;61.302;2023-05-10T12:48:22;15.52;17.28
74376;HTU21D;62812;55.188;61.302;2023-05-10T12:50:50;15.48;17.25
74376;HTU21D;62812;55.188;61.302;2023-05-10T12:53:17;15.53;18.89
74376;HTU21D;62812;55.188;61.302;2023-05-10T12:55:46;15.51;17.26
74376;HTU21D;62812;55.188;61.302;2023-05-10T12:58:15;15.44;17.49
74376;HTU21D;62812;55.188;61.302;2023-05-10T13:00:43;15.49;19.84
74376;HTU21D;62812;55.188;61.302;2023-05-10T13:03:15;15.56;18.73
74376;HTU21D;62812;55.188;61.302;2023-05-10T13:05:42;15.58;17.49
74376;HTU21D;62812;55.188;61.302;2023-05-10T13:08:12;15.54;17.13
74376;HTU21D;62812;55.188;61.302;2023-05-10T13:10:39;15.48;17.25
74376;HTU21D;62812;55.188;61.302;2023-05-10T13:13:06;15.41;17.64
74376;HTU21D;62812;55.188;61.302;2023-05-10T13:15:35;15.36;17.28
74376;HTU21D;62812;55.188;61.302;2023-05-10T13:18:02;15.31;17.16
74376;HTU21D;62812;55.188;61.302;2023-05-10T13:20:32;15.36;17.62
74376;HTU21D;62812;55.188;61.302;2023-05-10T13:22:58;15.39;19.03
74376;HTU21D;62812;55.188;61.302;2023-05-10T13:25:28;15.45;17.37
74376;HTU21D;62812;55.188;61.302;2023-05-10T13:27:55;15.42;17.88
74376;HTU21D;62812;55.188;61.302;2023-05-10T13:30:22;15.31;18.46
74376;HTU21D;62812;55.188;61.302;2023-05-10T13:32:50;15.23;18.66
74376;HTU21D;62812;55.188;61.302;2023-05-10T13:35:18;15.13;18.48
74376;HTU21D;62812;55.188;61.302;2023-05-10T13:37:50;15.12;19.11
74376;HTU21D;62812;55.188;61.302;2023-05-10T13:40:18;15.19;18.59
74376;HTU21D;62812;55.188;61.302;2023-05-10T13:42:46;15.18;19.44
74376;HTU21D;62812;55.188;61.302;2023-05-10T13:45:13;15.16;18.06
74376;HTU21D;62812;55.188;61.302;2023-05-10T13:47:40;15.08;18.30
74376;HTU21D;62812;55.188;61.302;2023-05-10T13:50:08;15.03;17.57
74376;HTU21D;62812;55.188;61.302;2023-05-10T13:52:40;14.99;17.40
74376;HTU21D;62812;55.188;61.302;2023-05-10T13:55:09;14.94;17.12
74376;HTU21D;62812;55.188;61.302;2023-05-10T13:57:39;14.88;16.71
74376;HTU21D;62812;55.188;61.302;2023-05-10T14:00:07;14.81;18.44
74376;HTU21D;62812;55.188;61.302;2023-05-10T14:02:34;14.64;24.99
74376;HTU21D;62812;55.188;61.302;2023-05-10T14:05:02;14.56;27.81
74376;HTU21D;62812;55.188;61.302;2023-05-10T14:07:29;14.60;23.42
74376;HTU21D;62812;55.188;61.302;2023-05-10T14:09:58;14.66;27.50
74376;HTU21D;62812;55.188;61.302;2023-05-10T14:12:27;14.75;27.33
74376;HTU21D;62812;55.188;61.302;2023-05-10T14:14:54;14.83;26.94
74376;HTU21D;62812;55.188;61.302;2023-05-10T14:17:22;14.91;28.48
74376;HTU21D;62812;55.188;61.302;2023-05-10T14:19:49;14.93;27.55
74376;HTU21D;62812;55.188;61.302;2023-05-10T14:22:20;14.88;29.66
74376;HTU21D;62812;55.188;61.302;2023-05-10T14:24:48;14.83;27.32
74376;HTU21D;62812;55.188;61.302;2023-05-10T14:27:16;14.78;30.94
74376;HTU21D;62812;55.188;61.302;2023-05-10T14:29:50;14.62;31.06
74376;HTU21D;62812;55.188;61.302;2023-05-10T14:32:19;14.48;31.91
74376;HTU21D;62812;55.188;61.302;2023-05-10T14:34:46;14.34;32.12
74376;HTU21D;62812;55.188;61.302;2023-05-10T14:37:16;14.24;32.69
74376;HTU21D;62812;55.188;61.302;2023-05-10T14:39:43;14.14;32.15
74376;HTU21D;62812;55.188;61.302;2023-05-10T14:42:36;14.01;33.54
74376;HTU21D;62812;55.188;61.302;2023-05-10T14:45:08;13.93;33.60
74376;HTU21D;62812;55.188;61.302;2023-05-10T14:47:53;13.84;33.38
74376;HTU21D;62812;55.188;61.302;2023-05-10T14:50:25;13.79;34.59
74376;HTU21D;62812;55.188;61.302;2023-05-10T14:52:53;13.78;34.54
74376;HTU21D;62812;55.188;61.302;2023-05-10T14:55:23;13.67;35.21
74376;HTU21D;62812;55.188;61.302;2023-05-10T14:57:51;13.66;34.74
74376;HTU21D;62812;55.188;61.302;2023-05-10T15:00:20;13.59;34.92
74376;HTU21D;62812;55.188;61.302;2023-05-10T15:02:48;13.62;34.67
74376;HTU21D;62812;55.188;61.302;2023-05-10T15:05:18;13.63;33.54
74376;HTU21D;62812;55.188;61.302;2023-05-10T15:08:26;13.61;33.47
74376;HTU21D;62812;55.188;61.302;2023-05-10T15:16:04;13.30;35.02
74376;HTU21D;62812;55.188;61.302;2023-05-10T15:18:33;13.23;35.63
74376;HTU21D;62812;55.188;61.302;2023-05-10T15:21:04;13.21;35.37
74376;HTU21D;62812;55.188;61.302;2023-05-10T15:23:40;13.08;33.93
74376;HTU21D;62812;55.188;61.302;2023-05-10T15:26:38;12.99;36.21
74376;HTU21D;62812;55.188;61.302;2023-05-10T15:29:08;12.94;36.47
74376;HTU21D;62812;55.188;61.302;2023-05-10T15:31:49;12.87;36.84
74376;HTU21D;62812;55.188;61.302;2023-05-10T15:34:20;12.77;36.69
74376;HTU21D;62812;55.188;61.302;2023-05-10T15:36:47;12.71;36.13
74376;HTU21D;62812;55.188;61.302;2023-05-10T15:39:16;12.65;37.63
74376;HTU21D;62812;55.188;61.302;2023-05-10T15:41:43;12.60;36.89
74376;HTU21D;62812;55.188;61.302;2023-05-10T15:44:17;12.57;37.66